sensor_id;sensor_type;location;lat;lon;timestamp;pressure;altitude;pressure_sealevel;temperature;humidity
49040;BME280;36811;49.732;13.402;2022-12-18T00:01:03;99233.50;;;-8.84;79.74
49040;BME280;36811;49.732;13.402;2022-12-18T00:03:34;99226.78;;;-8.87;79.58
49040;BME280;36811;49.732;13.402;2022-12-18T00:06:00;99228.97;;;-8.93;78.98
49040;BME280;36811;49.732;13.402;2022-12-18T00:08:26;99227.09;;;-8.91;79.00
49040;BME280;36811;49.732;13.402;2022-12-18T00:10:52;99230.09;;;-8.85;79.70
49040;BME280;36811;49.732;13.402;2022-12-18T00:13:18;99234.44;;;-8.85;79.69
49040;BME280;36811;49.732;13.402;2022-12-18T00:15:43;99239.91;;;-8.77;80.37
49040;BME280;36811;49.732;13.402;2022-12-18T00:18:09;99241.19;;;-8.70;79.80
49040;BME280;36811;49.732;13.402;2022-12-18T00:20:35;99234.22;;;-8.82;79.57
49040;BME280;36811;49.732;13.402;2022-12-18T00:23:01;99247.88;;;-8.80;79.71
49040;BME280;36811;49.732;13.402;2022-12-18T00:25:27;99248.72;;;-8.67;79.66
49040;BME280;36811;49.732;13.402;2022-12-18T00:27:53;99248.00;;;-8.69;79.63
49040;BME280;36811;49.732;13.402;2022-12-18T00:30:18;99255.84;;;-8.71;79.82
49040;BME280;36811;49.732;13.402;2022-12-18T00:32:43;99266.56;;;-8.64;79.84
49040;BME280;36811;49.732;13.402;2022-12-18T00:35:09;99265.47;;;-8.60;79.55
49040;BME280;36811;49.732;13.402;2022-12-18T00:37:34;99262.38;;;-8.53;79.78
49040;BME280;36811;49.732;13.402;2022-12-18T00:40:00;99269.19;;;-8.52;79.67
49040;BME280;36811;49.732;13.402;2022-12-18T00:42:25;99265.03;;;-8.54;79.95
49040;BME280;36811;49.732;13.402;2022-12-18T00:45:09;99266.56;;;-8.64;80.44
49040;BME280;36811;49.732;13.402;2022-12-18T00:47:35;99259.34;;;-8.59;80.56
49040;BME280;36811;49.732;13.402;2022-12-18T00:50:00;99263.69;;;-8.60;80.47
49040;BME280;36811;49.732;13.402;2022-12-18T00:52:26;99263.81;;;-8.61;80.27
49040;BME280;36811;49.732;13.402;2022-12-18T00:54:51;99264.72;;;-8.62;80.12
49040;BME280;36811;49.732;13.402;2022-12-18T00:57:16;99267.19;;;-8.73;80.21
49040;BME280;36811;49.732;13.402;2022-12-18T00:59:42;99268.38;;;-8.79;79.72
49040;BME280;36811;49.732;13.402;2022-12-18T01:02:07;99279.06;;;-8.85;80.00
49040;BME280;36811;49.732;13.402;2022-12-18T01:04:33;99271.03;;;-8.93;80.53
49040;BME280;36811;49.732;13.402;2022-12-18T01:06:58;99282.44;;;-8.97;80.31
49040;BME280;36811;49.732;13.402;2022-12-18T01:09:24;99272.66;;;-8.92;79.68
49040;BME280;36811;49.732;13.402;2022-12-18T01:11:50;99272.84;;;-8.95;80.22
49040;BME280;36811;49.732;13.402;2022-12-18T01:14:15;99272.78;;;-8.93;80.17
49040;BME280;36811;49.732;13.402;2022-12-18T01:16:41;99282.44;;;-8.97;80.70
49040;BME280;36811;49.732;13.402;2022-12-18T01:19:07;99283.28;;;-8.96;80.83
49040;BME280;36811;49.732;13.402;2022-12-18T01:21:32;99288.06;;;-8.90;80.95
49040;BME280;36811;49.732;13.402;2022-12-18T01:23:58;99293.75;;;-8.85;81.21
49040;BME280;36811;49.732;13.402;2022-12-18T01:26:23;99290.88;;;-8.81;81.18
49040;BME280;36811;49.732;13.402;2022-12-18T01:28:49;99289.25;;;-8.69;82.04
49040;BME280;36811;49.732;13.402;2022-12-18T01:31:19;99280.41;;;-8.65;81.45
49040;BME280;36811;49.732;13.402;2022-12-18T01:33:45;99291.44;;;-8.63;81.44
49040;BME280;36811;49.732;13.402;2022-12-18T01:36:14;99294.75;;;-8.61;81.53
49040;BME280;36811;49.732;13.402;2022-12-18T01:38:40;99305.22;;;-8.50;81.85
49040;BME280;36811;49.732;13.402;2022-12-18T01:41:06;99309.22;;;-8.46;81.21
49040;BME280;36811;49.732;13.402;2022-12-18T01:43:49;99297.25;;;-8.47;80.95
49040;BME280;36811;49.732;13.402;2022-12-18T01:46:16;99312.41;;;-8.55;80.73
49040;BME280;36811;49.732;13.402;2022-12-18T01:48:41;99300.09;;;-8.64;80.81
49040;BME280;36811;49.732;13.402;2022-12-18T01:51:08;99298.53;;;-8.67;80.62
49040;BME280;36811;49.732;13.402;2022-12-18T01:53:35;99295.03;;;-8.66;80.43
49040;BME280;36811;49.732;13.402;2022-12-18T01:56:01;99301.22;;;-8.68;80.79
49040;BME280;36811;49.732;13.402;2022-12-18T01:58:32;99297.31;;;-8.61;80.66
49040;BME280;36811;49.732;13.402;2022-12-18T02:01:01;99299.91;;;-8.61;80.26
49040;BME280;36811;49.732;13.402;2022-12-18T02:03:26;99297.63;;;-8.66;80.06
49040;BME280;36811;49.732;13.402;2022-12-18T02:08:20;99309.34;;;-8.74;80.33
49040;BME280;36811;49.732;13.402;2022-12-18T02:13:31;99315.66;;;-8.92;80.60
49040;BME280;36811;49.732;13.402;2022-12-18T02:16:00;99325.78;;;-8.89;80.71
49040;BME280;36811;49.732;13.402;2022-12-18T02:18:28;99323.19;;;-8.89;80.91
49040;BME280;36811;49.732;13.402;2022-12-18T02:28:42;99314.19;;;-8.70;80.99
49040;BME280;36811;49.732;13.402;2022-12-18T02:31:11;99318.34;;;-8.67;80.88
49040;BME280;36811;49.732;13.402;2022-12-18T02:33:38;99318.34;;;-8.67;80.66
49040;BME280;36811;49.732;13.402;2022-12-18T02:36:05;99322.59;;;-8.66;80.99
49040;BME280;36811;49.732;13.402;2022-12-18T02:38:31;99331.63;;;-8.73;81.69
49040;BME280;36811;49.732;13.402;2022-12-18T02:40:58;99331.03;;;-8.64;81.04
49040;BME280;36811;49.732;13.402;2022-12-18T02:43:25;99327.75;;;-8.66;81.29
49040;BME280;36811;49.732;13.402;2022-12-18T02:45:55;99331.56;;;-8.59;80.84
49040;BME280;36811;49.732;13.402;2022-12-18T02:48:22;99323.34;;;-8.52;81.13
49040;BME280;36811;49.732;13.402;2022-12-18T02:50:55;99327.66;;;-8.52;80.99
49040;BME280;36811;49.732;13.402;2022-12-18T02:53:39;99330.56;;;-8.57;81.31
49040;BME280;36811;49.732;13.402;2022-12-18T02:56:13;99327.34;;;-8.60;81.51
49040;BME280;36811;49.732;13.402;2022-12-18T03:04:24;99330.47;;;-8.55;82.43
49040;BME280;36811;49.732;13.402;2022-12-18T03:06:36;99332.22;;;-8.56;82.12
49040;BME280;36811;49.732;13.402;2022-12-18T03:09:06;99333.66;;;-8.52;81.31
49040;BME280;36811;49.732;13.402;2022-12-18T03:11:33;99337.94;;;-8.65;80.71
49040;BME280;36811;49.732;13.402;2022-12-18T03:14:19;99343.06;;;-8.77;80.91
49040;BME280;36811;49.732;13.402;2022-12-18T03:16:47;99336.19;;;-8.91;80.96
49040;BME280;36811;49.732;13.402;2022-12-18T03:19:18;99332.81;;;-9.06;80.30
49040;BME280;36811;49.732;13.402;2022-12-18T03:21:46;99331.94;;;-9.19;80.73
49040;BME280;36811;49.732;13.402;2022-12-18T03:24:12;99333.19;;;-9.26;80.96
49040;BME280;36811;49.732;13.402;2022-12-18T03:26:40;99334.88;;;-9.25;81.13
49040;BME280;36811;49.732;13.402;2022-12-18T03:29:08;99338.81;;;-9.19;81.24
49040;BME280;36811;49.732;13.402;2022-12-18T03:31:35;99331.34;;;-9.10;81.48
49040;BME280;36811;49.732;13.402;2022-12-18T03:34:04;99329.97;;;-9.01;80.70
49040;BME280;36811;49.732;13.402;2022-12-18T03:36:31;99336.28;;;-8.92;80.64
49040;BME280;36811;49.732;13.402;2022-12-18T03:38:57;99337.66;;;-8.87;80.52
49040;BME280;36811;49.732;13.402;2022-12-18T03:41:34;99325.69;;;-8.88;80.05
49040;BME280;36811;49.732;13.402;2022-12-18T03:44:24;99324.34;;;-8.93;80.26
49040;BME280;36811;49.732;13.402;2022-12-18T03:46:55;99327.38;;;-9.01;80.02
49040;BME280;36811;49.732;13.402;2022-12-18T03:49:41;99323.97;;;-9.01;80.46
49040;BME280;36811;49.732;13.402;2022-12-18T03:52:24;99329.47;;;-8.93;80.25
49040;BME280;36811;49.732;13.402;2022-12-18T03:54:51;99339.06;;;-8.95;80.52
49040;BME280;36811;49.732;13.402;2022-12-18T03:57:20;99344.22;;;-8.95;80.71
49040;BME280;36811;49.732;13.402;2022-12-18T03:59:47;99340.75;;;-9.09;80.41
49040;BME280;36811;49.732;13.402;2022-12-18T04:02:14;99347.34;;;-9.05;81.15
49040;BME280;36811;49.732;13.402;2022-12-18T04:04:41;99345.69;;;-9.06;80.83
49040;BME280;36811;49.732;13.402;2022-12-18T04:07:08;99357.59;;;-9.03;81.44
49040;BME280;36811;49.732;13.402;2022-12-18T04:09:34;99353.41;;;-9.06;80.70
49040;BME280;36811;49.732;13.402;2022-12-18T04:12:00;99359.25;;;-9.30;80.81
49040;BME280;36811;49.732;13.402;2022-12-18T04:14:26;99364.97;;;-9.39;81.12
49040;BME280;36811;49.732;13.402;2022-12-18T04:16:51;99366.88;;;-9.43;81.14
49040;BME280;36811;49.732;13.402;2022-12-18T04:19:17;99369.09;;;-9.37;80.41
49040;BME280;36811;49.732;13.402;2022-12-18T04:21:42;99369.72;;;-9.33;80.51
49040;BME280;36811;49.732;13.402;2022-12-18T04:24:08;99379.59;;;-9.40;80.82
49040;BME280;36811;49.732;13.402;2022-12-18T04:26:33;99384.19;;;-9.59;81.52
49040;BME280;36811;49.732;13.402;2022-12-18T04:28:59;99387.31;;;-9.40;80.94
49040;BME280;36811;49.732;13.402;2022-12-18T04:31:25;99382.34;;;-9.29;80.89
49040;BME280;36811;49.732;13.402;2022-12-18T04:33:50;99400.56;;;-9.18;80.64
49040;BME280;36811;49.732;13.402;2022-12-18T04:36:15;99388.03;;;-9.10;80.32
49040;BME280;36811;49.732;13.402;2022-12-18T04:38:41;99391.28;;;-9.06;81.07
49040;BME280;36811;49.732;13.402;2022-12-18T04:41:06;99388.88;;;-9.09;81.20
49040;BME280;36811;49.732;13.402;2022-12-18T04:43:32;99397.69;;;-8.99;80.69
49040;BME280;36811;49.732;13.402;2022-12-18T04:46:04;99392.91;;;-8.91;80.17
49040;BME280;36811;49.732;13.402;2022-12-18T04:48:30;99390.94;;;-8.87;80.50
49040;BME280;36811;49.732;13.402;2022-12-18T04:50:56;99389.69;;;-8.80;80.26
49040;BME280;36811;49.732;13.402;2022-12-18T04:53:22;99399.59;;;-8.74;80.02
49040;BME280;36811;49.732;13.402;2022-12-18T04:55:47;99393.34;;;-8.70;80.01
49040;BME280;36811;49.732;13.402;2022-12-18T04:58:12;99400.25;;;-8.71;79.97
49040;BME280;36811;49.732;13.402;2022-12-18T05:00:38;99404.56;;;-8.71;79.89
49040;BME280;36811;49.732;13.402;2022-12-18T05:03:03;99411.75;;;-8.76;79.76
49040;BME280;36811;49.732;13.402;2022-12-18T05:05:29;99412.88;;;-8.80;79.97
49040;BME280;36811;49.732;13.402;2022-12-18T05:07:54;99412.22;;;-8.84;79.99
49040;BME280;36811;49.732;13.402;2022-12-18T05:10:20;99405.31;;;-8.83;80.05
49040;BME280;36811;49.732;13.402;2022-12-18T05:12:45;99411.56;;;-8.87;79.57
49040;BME280;36811;49.732;13.402;2022-12-18T05:15:23;99411.88;;;-9.06;80.40
49040;BME280;36811;49.732;13.402;2022-12-18T05:17:48;99414.94;;;-9.14;80.10
49040;BME280;36811;49.732;13.402;2022-12-18T05:20:14;99421.53;;;-9.10;80.04
49040;BME280;36811;49.732;13.402;2022-12-18T05:22:40;99423.09;;;-9.07;79.81
49040;BME280;36811;49.732;13.402;2022-12-18T05:25:05;99416.94;;;-9.05;79.48
49040;BME280;36811;49.732;13.402;2022-12-18T05:27:31;99426.97;;;-9.14;79.71
49040;BME280;36811;49.732;13.402;2022-12-18T05:29:56;99421.09;;;-9.16;79.96
49040;BME280;36811;49.732;13.402;2022-12-18T05:32:21;99421.44;;;-9.22;80.44
49040;BME280;36811;49.732;13.402;2022-12-18T05:34:47;99404.59;;;-9.28;80.02
49040;BME280;36811;49.732;13.402;2022-12-18T05:37:12;99418.59;;;-9.32;80.08
49040;BME280;36811;49.732;13.402;2022-12-18T05:39:38;99426.41;;;-9.33;79.91
49040;BME280;36811;49.732;13.402;2022-12-18T05:42:03;99425.94;;;-9.40;80.66
49040;BME280;36811;49.732;13.402;2022-12-18T05:44:29;99416.22;;;-9.49;81.15
49040;BME280;36811;49.732;13.402;2022-12-18T05:46:54;99424.84;;;-9.50;81.44
49040;BME280;36811;49.732;13.402;2022-12-18T05:49:19;99438.63;;;-9.51;80.58
49040;BME280;36811;49.732;13.402;2022-12-18T05:51:45;99443.31;;;-9.43;81.39
49040;BME280;36811;49.732;13.402;2022-12-18T05:54:11;99449.88;;;-9.38;81.05
49040;BME280;36811;49.732;13.402;2022-12-18T05:56:36;99449.13;;;-9.40;81.19
49040;BME280;36811;49.732;13.402;2022-12-18T05:59:01;99447.69;;;-9.30;80.05
49040;BME280;36811;49.732;13.402;2022-12-18T06:01:27;99449.13;;;-9.26;79.85
49040;BME280;36811;49.732;13.402;2022-12-18T06:03:52;99444.19;;;-9.29;79.68
49040;BME280;36811;49.732;13.402;2022-12-18T06:06:19;99456.41;;;-9.32;80.08
49040;BME280;36811;49.732;13.402;2022-12-18T06:08:45;99463.69;;;-9.39;79.49
49040;BME280;36811;49.732;13.402;2022-12-18T06:11:11;99459.78;;;-9.46;80.38
49040;BME280;36811;49.732;13.402;2022-12-18T06:13:37;99454.63;;;-9.46;80.74
49040;BME280;36811;49.732;13.402;2022-12-18T06:16:04;99455.47;;;-9.45;80.13
49040;BME280;36811;49.732;13.402;2022-12-18T06:18:29;99455.63;;;-9.48;79.96
49040;BME280;36811;49.732;13.402;2022-12-18T06:20:55;99463.19;;;-9.45;81.61
49040;BME280;36811;49.732;13.402;2022-12-18T06:23:21;99468.72;;;-9.51;81.20
49040;BME280;36811;49.732;13.402;2022-12-18T06:25:47;99474.59;;;-9.49;80.60
49040;BME280;36811;49.732;13.402;2022-12-18T06:28:12;99461.44;;;-9.45;79.94
49040;BME280;36811;49.732;13.402;2022-12-18T06:30:38;99464.75;;;-9.43;80.03
49040;BME280;36811;49.732;13.402;2022-12-18T06:33:03;99471.75;;;-9.45;80.99
49040;BME280;36811;49.732;13.402;2022-12-18T06:35:28;99474.44;;;-9.46;80.46
49040;BME280;36811;49.732;13.402;2022-12-18T06:37:54;99482.78;;;-9.43;80.63
49040;BME280;36811;49.732;13.402;2022-12-18T06:40:19;99465.31;;;-9.38;80.11
49040;BME280;36811;49.732;13.402;2022-12-18T06:42:45;99466.59;;;-9.45;80.03
49040;BME280;36811;49.732;13.402;2022-12-18T06:45:11;99465.03;;;-9.47;80.18
49040;BME280;36811;49.732;13.402;2022-12-18T06:47:36;99474.88;;;-9.54;79.99
49040;BME280;36811;49.732;13.402;2022-12-18T06:50:02;99473.34;;;-9.72;80.03
49040;BME280;36811;49.732;13.402;2022-12-18T06:52:28;99480.09;;;-9.85;80.83
49040;BME280;36811;49.732;13.402;2022-12-18T06:54:53;99483.09;;;-9.77;81.91
49040;BME280;36811;49.732;13.402;2022-12-18T06:57:18;99490.78;;;-9.61;80.98
49040;BME280;36811;49.732;13.402;2022-12-18T06:59:44;99497.13;;;-9.53;80.59
49040;BME280;36811;49.732;13.402;2022-12-18T07:02:12;99512.06;;;-9.44;80.90
49040;BME280;36811;49.732;13.402;2022-12-18T07:04:38;99506.72;;;-9.41;81.55
49040;BME280;36811;49.732;13.402;2022-12-18T07:07:03;99515.38;;;-9.28;80.60
49040;BME280;36811;49.732;13.402;2022-12-18T07:09:29;99515.69;;;-9.18;80.31
49040;BME280;36811;49.732;13.402;2022-12-18T07:11:54;99516.44;;;-9.16;80.23
49040;BME280;36811;49.732;13.402;2022-12-18T07:14:19;99506.75;;;-9.13;79.37
49040;BME280;36811;49.732;13.402;2022-12-18T07:16:46;99508.59;;;-9.15;79.49
49040;BME280;36811;49.732;13.402;2022-12-18T07:19:11;99507.78;;;-9.15;79.64
49040;BME280;36811;49.732;13.402;2022-12-18T07:21:37;99513.59;;;-9.12;80.10
49040;BME280;36811;49.732;13.402;2022-12-18T07:24:02;99509.91;;;-9.08;79.78
49040;BME280;36811;49.732;13.402;2022-12-18T07:26:28;99508.88;;;-9.05;79.55
49040;BME280;36811;49.732;13.402;2022-12-18T07:28:56;99507.16;;;-9.05;79.64
49040;BME280;36811;49.732;13.402;2022-12-18T07:31:23;99511.22;;;-9.00;79.52
49040;BME280;36811;49.732;13.402;2022-12-18T07:33:49;99516.28;;;-8.99;79.30
49040;BME280;36811;49.732;13.402;2022-12-18T07:36:15;99527.97;;;-8.93;79.13
49040;BME280;36811;49.732;13.402;2022-12-18T07:38:41;99531.09;;;-8.88;78.79
49040;BME280;36811;49.732;13.402;2022-12-18T07:41:07;99532.56;;;-8.84;78.76
49040;BME280;36811;49.732;13.402;2022-12-18T07:43:33;99531.09;;;-8.88;78.04
49040;BME280;36811;49.732;13.402;2022-12-18T07:45:59;99537.28;;;-8.91;78.73
49040;BME280;36811;49.732;13.402;2022-12-18T07:48:24;99526.84;;;-9.03;78.57
49040;BME280;36811;49.732;13.402;2022-12-18T07:50:50;99531.00;;;-9.01;79.08
49040;BME280;36811;49.732;13.402;2022-12-18T07:53:15;99542.25;;;-8.88;78.69
49040;BME280;36811;49.732;13.402;2022-12-18T07:55:41;99533.13;;;-8.93;78.47
49040;BME280;36811;49.732;13.402;2022-12-18T07:58:07;99534.50;;;-9.02;78.22
49040;BME280;36811;49.732;13.402;2022-12-18T08:00:33;99532.25;;;-9.08;78.43
49040;BME280;36811;49.732;13.402;2022-12-18T08:02:58;99536.44;;;-8.91;78.99
49040;BME280;36811;49.732;13.402;2022-12-18T08:05:23;99534.97;;;-8.81;78.52
49040;BME280;36811;49.732;13.402;2022-12-18T08:07:49;99531.19;;;-8.76;78.44
49040;BME280;36811;49.732;13.402;2022-12-18T08:10:14;99537.94;;;-8.73;78.24
49040;BME280;36811;49.732;13.402;2022-12-18T08:12:40;99528.25;;;-8.56;78.12
49040;BME280;36811;49.732;13.402;2022-12-18T08:15:06;99538.09;;;-8.48;78.06
49040;BME280;36811;49.732;13.402;2022-12-18T08:17:31;99538.66;;;-8.43;78.14
49040;BME280;36811;49.732;13.402;2022-12-18T08:19:58;99547.66;;;-8.36;78.13
49040;BME280;36811;49.732;13.402;2022-12-18T08:22:24;99546.75;;;-8.35;77.62
49040;BME280;36811;49.732;13.402;2022-12-18T08:24:49;99545.44;;;-8.28;77.89
49040;BME280;36811;49.732;13.402;2022-12-18T08:27:15;99547.41;;;-8.19;77.86
49040;BME280;36811;49.732;13.402;2022-12-18T08:29:40;99544.41;;;-7.99;77.69
49040;BME280;36811;49.732;13.402;2022-12-18T08:32:05;99542.13;;;-8.03;78.85
49040;BME280;36811;49.732;13.402;2022-12-18T08:34:31;99540.34;;;-7.89;78.41
49040;BME280;36811;49.732;13.402;2022-12-18T08:36:56;99538.25;;;-7.96;78.92
49040;BME280;36811;49.732;13.402;2022-12-18T08:39:22;99538.47;;;-7.87;79.03
49040;BME280;36811;49.732;13.402;2022-12-18T08:41:47;99550.81;;;-7.78;78.88
49040;BME280;36811;49.732;13.402;2022-12-18T08:44:32;99550.19;;;-7.54;78.37
49040;BME280;36811;49.732;13.402;2022-12-18T08:47:04;99543.28;;;-7.81;78.64
49040;BME280;36811;49.732;13.402;2022-12-18T08:49:30;99544.19;;;-7.55;79.01
49040;BME280;36811;49.732;13.402;2022-12-18T08:51:56;99552.06;;;-7.56;78.36
49040;BME280;36811;49.732;13.402;2022-12-18T08:54:24;99556.59;;;-8.01;78.80
49040;BME280;36811;49.732;13.402;2022-12-18T08:56:49;99551.56;;;-8.02;78.85
49040;BME280;36811;49.732;13.402;2022-12-18T08:59:16;99565.72;;;-7.95;78.74
49040;BME280;36811;49.732;13.402;2022-12-18T09:01:42;99566.31;;;-8.45;79.78
49040;BME280;36811;49.732;13.402;2022-12-18T09:04:08;99568.84;;;-8.31;80.21
49040;BME280;36811;49.732;13.402;2022-12-18T09:06:34;99573.38;;;-7.94;80.53
49040;BME280;36811;49.732;13.402;2022-12-18T09:08:59;99575.47;;;-7.33;79.85
49040;BME280;36811;49.732;13.402;2022-12-18T09:11:25;99582.75;;;-7.00;78.69
49040;BME280;36811;49.732;13.402;2022-12-18T09:13:51;99579.28;;;-6.86;77.16
49040;BME280;36811;49.732;13.402;2022-12-18T09:16:17;99575.50;;;-7.20;77.38
49040;BME280;36811;49.732;13.402;2022-12-18T09:18:44;99572.59;;;-7.16;77.06
49040;BME280;36811;49.732;13.402;2022-12-18T09:21:14;99576.75;;;-7.52;76.46
49040;BME280;36811;49.732;13.402;2022-12-18T09:23:40;99579.13;;;-7.10;76.78
49040;BME280;36811;49.732;13.402;2022-12-18T09:26:06;99579.44;;;-7.15;77.42
49040;BME280;36811;49.732;13.402;2022-12-18T09:28:32;99590.47;;;-7.25;77.05
49040;BME280;36811;49.732;13.402;2022-12-18T09:30:57;99578.22;;;-6.96;77.93
49040;BME280;36811;49.732;13.402;2022-12-18T09:33:23;99582.66;;;-7.11;74.81
49040;BME280;36811;49.732;13.402;2022-12-18T09:35:48;99579.94;;;-7.22;77.52
49040;BME280;36811;49.732;13.402;2022-12-18T09:38:15;99581.50;;;-7.20;77.28
49040;BME280;36811;49.732;13.402;2022-12-18T09:40:45;99582.09;;;-7.29;77.76
49040;BME280;36811;49.732;13.402;2022-12-18T09:43:14;99585.19;;;-7.36;76.80
49040;BME280;36811;49.732;13.402;2022-12-18T09:45:42;99584.34;;;-7.90;78.27
49040;BME280;36811;49.732;13.402;2022-12-18T09:48:10;99584.28;;;-7.76;77.57
49040;BME280;36811;49.732;13.402;2022-12-18T09:50:42;99594.06;;;-7.40;78.90
49040;BME280;36811;49.732;13.402;2022-12-18T09:53:12;99589.03;;;-7.56;77.80
49040;BME280;36811;49.732;13.402;2022-12-18T09:55:42;99586.84;;;-6.83;77.12
49040;BME280;36811;49.732;13.402;2022-12-18T10:00:36;99593.94;;;-7.12;76.83
49040;BME280;36811;49.732;13.402;2022-12-18T10:03:11;99595.56;;;-7.24;76.74
49040;BME280;36811;49.732;13.402;2022-12-18T10:05:46;99591.25;;;-6.98;76.97
49040;BME280;36811;49.732;13.402;2022-12-18T10:08:24;99582.16;;;-7.03;76.28
49040;BME280;36811;49.732;13.402;2022-12-18T10:10:57;99566.88;;;-7.33;77.25
49040;BME280;36811;49.732;13.402;2022-12-18T10:13:43;99563.06;;;-7.28;77.91
49040;BME280;36811;49.732;13.402;2022-12-18T10:26:38;99535.81;;;-7.19;79.41
49040;BME280;36811;49.732;13.402;2022-12-18T10:29:08;99534.22;;;-7.34;76.89
49040;BME280;36811;49.732;13.402;2022-12-18T10:31:35;99523.75;;;-7.45;77.61
49040;BME280;36811;49.732;13.402;2022-12-18T10:34:00;99522.00;;;-7.45;78.39
49040;BME280;36811;49.732;13.402;2022-12-18T10:36:26;99535.16;;;-7.23;78.58
49040;BME280;36811;49.732;13.402;2022-12-18T10:38:52;99534.25;;;-7.09;79.00
49040;BME280;36811;49.732;13.402;2022-12-18T10:43:43;99532.81;;;-7.00;77.90
49040;BME280;36811;49.732;13.402;2022-12-18T10:51:19;99531.47;;;-6.81;76.71
49040;BME280;36811;49.732;13.402;2022-12-18T10:53:50;99543.78;;;-6.59;76.18
49040;BME280;36811;49.732;13.402;2022-12-18T10:56:18;99540.53;;;-6.25;77.49
49040;BME280;36811;49.732;13.402;2022-12-18T10:58:45;99536.41;;;-6.53;76.70
49040;BME280;36811;49.732;13.402;2022-12-18T11:01:20;99531.03;;;-6.50;77.09
49040;BME280;36811;49.732;13.402;2022-12-18T11:03:47;99538.22;;;-6.66;76.04
49040;BME280;36811;49.732;13.402;2022-12-18T11:06:23;99541.06;;;-7.08;76.16
49040;BME280;36811;49.732;13.402;2022-12-18T11:08:59;99523.53;;;-7.55;77.59
49040;BME280;36811;49.732;13.402;2022-12-18T11:11:26;99535.38;;;-7.13;78.31
49040;BME280;36811;49.732;13.402;2022-12-18T11:16:26;99526.09;;;-6.16;78.52
49040;BME280;36811;49.732;13.402;2022-12-18T11:18:52;99522.63;;;-6.04;76.40
49040;BME280;36811;49.732;13.402;2022-12-18T11:21:18;99525.09;;;-5.79;76.64
49040;BME280;36811;49.732;13.402;2022-12-18T11:23:50;99523.97;;;-6.22;75.28
49040;BME280;36811;49.732;13.402;2022-12-18T11:26:16;99516.28;;;-6.24;75.97
49040;BME280;36811;49.732;13.402;2022-12-18T11:31:26;99504.78;;;-5.96;76.09
49040;BME280;36811;49.732;13.402;2022-12-18T11:36:34;99486.31;;;-5.92;74.80
49040;BME280;36811;49.732;13.402;2022-12-18T11:39:05;99481.59;;;-5.98;75.35
49040;BME280;36811;49.732;13.402;2022-12-18T11:41:46;99487.31;;;-6.41;75.89
49040;BME280;36811;49.732;13.402;2022-12-18T11:44:35;99482.81;;;-6.51;76.56
49040;BME280;36811;49.732;13.402;2022-12-18T11:47:05;99483.00;;;-6.54;77.58
49040;BME280;36811;49.732;13.402;2022-12-18T11:49:34;99485.56;;;-6.05;77.44
49040;BME280;36811;49.732;13.402;2022-12-18T11:52:04;99476.50;;;-5.99;76.31
49040;BME280;36811;49.732;13.402;2022-12-18T11:54:34;99480.47;;;-6.06;75.36
49040;BME280;36811;49.732;13.402;2022-12-18T11:59:59;99494.84;;;-6.26;77.13
49040;BME280;36811;49.732;13.402;2022-12-18T12:02:42;99492.75;;;-5.85;78.62
49040;BME280;36811;49.732;13.402;2022-12-18T12:05:16;99493.63;;;-5.62;77.06
49040;BME280;36811;49.732;13.402;2022-12-18T12:08:06;99497.09;;;-5.74;77.32
49040;BME280;36811;49.732;13.402;2022-12-18T12:13:06;99498.47;;;-5.81;78.94
49040;BME280;36811;49.732;13.402;2022-12-18T12:15:48;99499.53;;;-5.84;78.60
49040;BME280;36811;49.732;13.402;2022-12-18T12:21:04;99512.97;;;-5.55;79.06
49040;BME280;36811;49.732;13.402;2022-12-18T12:26:03;99505.41;;;-5.23;78.33
49040;BME280;36811;49.732;13.402;2022-12-18T12:28:38;99513.63;;;-4.94;78.44
49040;BME280;36811;49.732;13.402;2022-12-18T12:31:24;99512.56;;;-4.70;77.02
49040;BME280;36811;49.732;13.402;2022-12-18T12:33:56;99510.66;;;-4.90;76.92
49040;BME280;36811;49.732;13.402;2022-12-18T12:36:30;99503.69;;;-5.11;77.35
49040;BME280;36811;49.732;13.402;2022-12-18T12:39:00;99508.44;;;-4.83;77.64
49040;BME280;36811;49.732;13.402;2022-12-18T12:41:27;99503.09;;;-5.04;77.63
49040;BME280;36811;49.732;13.402;2022-12-18T12:47:09;99512.22;;;-4.76;77.04
49040;BME280;36811;49.732;13.402;2022-12-18T12:49:37;99517.09;;;-5.18;77.73
49040;BME280;36811;49.732;13.402;2022-12-18T12:55:02;99502.22;;;-5.27;78.42
49040;BME280;36811;49.732;13.402;2022-12-18T13:05:18;99482.94;;;-4.89;78.85
49040;BME280;36811;49.732;13.402;2022-12-18T13:07:51;99472.72;;;-4.69;78.93
49040;BME280;36811;49.732;13.402;2022-12-18T13:13:01;99478.81;;;-5.14;79.18
49040;BME280;36811;49.732;13.402;2022-12-18T13:15:34;99479.66;;;-4.91;79.14
49040;BME280;36811;49.732;13.402;2022-12-18T13:20:33;99477.44;;;-4.74;78.76
49040;BME280;36811;49.732;13.402;2022-12-18T13:23:00;99480.56;;;-5.15;78.94
49040;BME280;36811;49.732;13.402;2022-12-18T13:38:21;99457.22;;;-5.60;81.93
49040;BME280;36811;49.732;13.402;2022-12-18T13:45:44;99463.91;;;-5.34;81.68
49040;BME280;36811;49.732;13.402;2022-12-18T13:48:17;99453.84;;;-5.39;81.40
49040;BME280;36811;49.732;13.402;2022-12-18T13:50:43;99463.78;;;-5.33;82.37
49040;BME280;36811;49.732;13.402;2022-12-18T13:53:19;99474.19;;;-5.10;81.96
49040;BME280;36811;49.732;13.402;2022-12-18T13:55:46;99470.53;;;-5.19;81.91
49040;BME280;36811;49.732;13.402;2022-12-18T13:58:11;99464.47;;;-5.31;81.58
49040;BME280;36811;49.732;13.402;2022-12-18T14:00:41;99463.06;;;-5.24;82.23
49040;BME280;36811;49.732;13.402;2022-12-18T14:03:17;99472.34;;;-5.08;82.96
49040;BME280;36811;49.732;13.402;2022-12-18T14:05:44;99474.59;;;-4.82;82.34
49040;BME280;36811;49.732;13.402;2022-12-18T14:08:14;99484.41;;;-4.63;81.56
49040;BME280;36811;49.732;13.402;2022-12-18T14:10:41;99478.94;;;-4.82;80.70
49040;BME280;36811;49.732;13.402;2022-12-18T14:13:08;99495.47;;;-4.83;81.32
49040;BME280;36811;49.732;13.402;2022-12-18T14:15:35;99496.19;;;-4.81;80.86
49040;BME280;36811;49.732;13.402;2022-12-18T14:20:48;99489.00;;;-5.24;81.70
49040;BME280;36811;49.732;13.402;2022-12-18T14:23:34;99476.78;;;-5.10;82.63
49040;BME280;36811;49.732;13.402;2022-12-18T14:26:17;99481.97;;;-5.22;82.28
49040;BME280;36811;49.732;13.402;2022-12-18T14:28:44;99479.59;;;-5.25;82.55
49040;BME280;36811;49.732;13.402;2022-12-18T14:31:26;99480.34;;;-5.11;82.83